Time;durP1;ratioP1;P1;durP2;ratioP2;P2;SDS_P1;SDS_P2;PMS_P1;PMS_P2;Temp;Humidity;BMP_temperature;BMP_pressure;BME280_temperature;BME280_humidity;BME280_pressure;Samples;Min_cycle;Max_cycle;Signal;HPM_P1;HPM_P2
2023/09/23 00:01:34;;;;;;;0.10;0.10;;;;;;;14.50;74.61;100794.72;5070904;28;20035;-77
2023/09/23 00:04:01;;;;;;;0.17;0.17;;;;;;;14.50;74.64;100792.06;5063788;28;20040;-74
2023/09/23 00:06:27;;;;;;;0.10;0.10;;;;;;;14.53;74.50;100789.28;5054776;28;20075;-77
2023/09/23 00:08:55;;;;;;;0.10;0.10;;;;;;;14.57;74.83;100796.25;5056804;28;20025;-77
2023/09/23 00:11:21;;;;;;;0.10;0.10;;;;;;;14.59;74.78;100788.19;5067559;28;20368;-77
2023/09/23 00:13:47;;;;;;;0.10;0.10;;;;;;;14.63;74.98;100794.28;5063912;28;20031;-76
2023/09/23 00:16:15;;;;;;;0.17;0.17;;;;;;;14.67;75.01;100795.94;5063258;28;20119;-77
2023/09/23 00:18:43;;;;;;;0.10;0.10;;;;;;;14.72;75.22;100799.31;5065742;28;20032;-77
2023/09/23 00:21:09;;;;;;;0.10;0.10;;;;;;;14.74;75.20;100789.44;5067596;28;20478;-75
2023/09/23 00:23:35;;;;;;;0.03;0.03;;;;;;;14.77;75.41;100786.66;5069831;28;20123;-77
2023/09/23 00:26:02;;;;;;;0.10;0.10;;;;;;;14.75;75.30;100772.50;5065870;28;20036;-77
2023/09/23 00:28:30;;;;;;;0.10;0.10;;;;;;;14.73;75.35;100766.38;5062876;28;20626;-76
2023/09/23 00:31:11;;;;;;;0.10;0.10;;;;;;;14.80;75.08;100773.19;5058092;28;20054;-76
2023/09/23 00:33:38;;;;;;;0.10;0.10;;;;;;;14.72;75.24;100777.97;5056668;28;20502;-77
2023/09/23 00:36:07;;;;;;;0.60;0.60;;;;;;;14.71;75.08;100781.56;5062336;28;20037;-77
2023/09/23 00:38:33;;;;;;;0.45;0.45;;;;;;;14.68;75.17;100787.88;5059317;28;20076;-78
2023/09/23 00:41:00;;;;;;;0.17;0.17;;;;;;;14.65;75.05;100792.47;5059382;28;20039;-77
2023/09/23 00:43:26;;;;;;;0.00;0.00;;;;;;;14.64;75.24;100788.00;5067820;28;20025;-74
2023/09/23 00:45:54;;;;;;;0.10;0.10;;;;;;;14.63;74.98;100786.28;5067574;28;20043;-75
2023/09/23 00:48:21;;;;;;;0.40;0.40;;;;;;;14.58;75.17;100794.47;5070425;28;20022;-78
2023/09/23 00:50:50;;;;;;;1.08;1.08;;;;;;;14.51;75.05;100791.13;5073459;28;20020;-77
2023/09/23 00:53:17;;;;;;;0.47;0.47;;;;;;;14.48;74.71;100801.94;5069172;28;20061;-77
2023/09/23 00:55:51;;;;;;;0.10;0.10;;;;;;;14.41;75.10;100803.09;5069240;28;20021;-75
2023/09/23 00:58:20;;;;;;;0.10;0.10;;;;;;;14.32;74.99;100795.44;5065622;28;20031;-77
2023/09/23 01:00:48;;;;;;;0.20;0.20;;;;;;;14.32;75.04;100811.44;5062426;28;20016;-77
2023/09/23 01:03:15;;;;;;;0.32;0.32;;;;;;;14.29;75.20;100814.19;5069310;28;20451;-77
2023/09/23 01:05:43;;;;;;;0.10;0.10;;;;;;;14.31;74.94;100809.69;5059796;28;20395;-77
2023/09/23 01:08:12;;;;;;;0.10;0.10;;;;;;;14.27;74.95;100811.59;5067438;28;20543;-77
2023/09/23 01:10:39;;;;;;;0.10;0.10;;;;;;;14.24;75.24;100815.22;5063191;28;20040;-77
2023/09/23 01:13:06;;;;;;;0.32;0.32;;;;;;;14.24;75.07;100820.56;5070041;28;20031;-75
2023/09/23 01:15:40;;;;;;;0.10;0.10;;;;;;;14.26;75.18;100830.31;5060627;28;20032;-77
2023/09/23 01:18:13;;;;;;;0.20;0.20;;;;;;;14.27;75.13;100829.34;5058214;28;20033;-77
2023/09/23 01:20:42;;;;;;;0.10;0.10;;;;;;;14.24;75.42;100839.22;5060321;28;20020;-77
2023/09/23 01:23:10;;;;;;;0.30;0.30;;;;;;;14.28;75.37;100837.31;5061559;28;20029;-76
2023/09/23 01:25:36;;;;;;;0.10;0.10;;;;;;;14.33;75.15;100839.78;5063953;28;20021;-77
2023/09/23 01:28:05;;;;;;;0.20;0.20;;;;;;;14.30;75.56;100835.44;5061274;28;20505;-77
2023/09/23 01:30:32;;;;;;;0.30;0.30;;;;;;;14.30;75.76;100837.25;5071389;28;20052;-77
2023/09/23 01:32:58;;;;;;;0.30;0.30;;;;;;;14.32;75.58;100832.75;5065747;28;20025;-77
2023/09/23 01:35:24;;;;;;;0.85;0.85;;;;;;;14.34;75.45;100836.22;5067073;28;20036;-78
2023/09/23 01:37:50;;;;;;;0.20;0.20;;;;;;;14.33;75.66;100827.34;5075754;28;20031;-77
2023/09/23 01:40:17;;;;;;;0.63;0.60;;;;;;;14.35;75.72;100827.28;5064532;28;20063;-77
2023/09/23 01:42:44;;;;;;;0.22;0.22;;;;;;;14.34;75.76;100828.22;5067478;28;20036;-78
2023/09/23 01:45:13;;;;;;;1.75;1.65;;;;;;;14.31;75.93;100833.66;5067146;28;20047;-78
2023/09/23 01:47:41;;;;;;;0.57;0.57;;;;;;;14.31;75.89;100833.66;5073842;28;20028;-78
2023/09/23 01:50:10;;;;;;;1.75;1.65;;;;;;;14.29;76.00;100831.03;5070916;28;20072;-77
2023/09/23 01:52:37;;;;;;;0.10;0.10;;;;;;;14.31;75.91;100831.84;5062335;28;20040;-78
2023/09/23 01:55:05;;;;;;;0.35;0.35;;;;;;;14.30;76.13;100829.25;5066234;28;20336;-77
2023/09/23 01:57:33;;;;;;;0.47;0.47;;;;;;;14.28;76.13;100828.44;5066045;28;20085;-78
2023/09/23 02:00:00;;;;;;;0.65;0.55;;;;;;;14.25;76.08;100829.41;5071755;28;20046;-78
2023/09/23 02:02:27;;;;;;;0.80;0.80;;;;;;;14.17;76.35;100829.69;5071903;28;20032;-77
2023/09/23 02:04:53;;;;;;;0.35;0.35;;;;;;;14.19;76.16;100827.84;5072879;28;20027;-79
2023/09/23 02:07:19;;;;;;;2.10;1.40;;;;;;;14.20;76.09;100829.56;5068997;28;20119;-79
2023/09/23 02:09:45;;;;;;;0.10;0.10;;;;;;;14.21;76.28;100836.63;5077434;28;20063;-78
2023/09/23 02:12:14;;;;;;;0.93;0.93;;;;;;;14.18;76.55;100835.88;5073240;28;20032;-79
2023/09/23 02:14:40;;;;;;;0.22;0.22;;;;;;;14.24;76.44;100836.53;5073852;28;20034;-78
2023/09/23 02:17:07;;;;;;;0.10;0.10;;;;;;;14.30;75.94;100831.91;5077275;28;20036;-76
2023/09/23 02:19:34;;;;;;;0.75;0.75;;;;;;;14.26;76.32;100843.63;5075150;28;20533;-78
2023/09/23 02:22:05;;;;;;;0.10;0.10;;;;;;;14.27;76.50;100851.56;5068722;28;20072;-77
2023/09/23 02:24:33;;;;;;;0.52;0.52;;;;;;;14.08;77.34;100849.53;5064681;28;20029;-78
2023/09/23 02:26:59;;;;;;;0.10;0.10;;;;;;;14.21;77.07;100865.09;5074373;28;20029;-78
2023/09/23 02:29:25;;;;;;;0.20;0.20;;;;;;;14.20;76.99;100866.00;5071691;28;20046;-78
2023/09/23 02:31:51;;;;;;;0.15;0.15;;;;;;;14.22;77.25;100867.69;5072395;28;20032;-78
2023/09/23 02:34:18;;;;;;;0.65;0.65;;;;;;;14.26;77.33;100864.94;5069622;28;20046;-79
2023/09/23 02:36:45;;;;;;;0.57;0.43;;;;;;;14.30;77.22;100866.56;5069488;28;20066;-79
2023/09/23 02:39:26;;;;;;;0.40;0.40;;;;;;;14.28;77.47;100863.97;5078907;28;20035;-78
2023/09/23 02:41:52;;;;;;;0.30;0.30;;;;;;;14.38;77.14;100868.03;5074306;28;20040;-77
2023/09/23 02:44:20;;;;;;;0.10;0.10;;;;;;;14.46;77.03;100870.41;5076309;28;20092;-77
2023/09/23 02:46:46;;;;;;;0.10;0.10;;;;;;;14.44;77.27;100868.75;5063625;28;20090;-78
2023/09/23 02:49:15;;;;;;;0.15;0.15;;;;;;;14.46;77.16;100869.56;5079544;28;20035;-76
2023/09/23 02:51:41;;;;;;;0.10;0.10;;;;;;;14.45;76.95;100870.47;5071635;28;20032;-78
2023/09/23 02:54:09;;;;;;;0.20;0.20;;;;;;;14.42;77.11;100875.91;5068685;28;20093;-78
2023/09/23 02:56:35;;;;;;;0.55;0.55;;;;;;;14.35;77.29;100877.94;5070671;28;20061;-76
2023/09/23 02:59:13;;;;;;;0.15;0.15;;;;;;;14.37;76.99;100873.44;5068835;28;20093;-79
2023/09/23 03:01:45;;;;;;;0.10;0.10;;;;;;;14.38;76.76;100872.47;5065160;28;20063;-77
2023/09/23 03:04:16;;;;;;;0.10;0.10;;;;;;;14.36;76.84;100883.19;5073795;28;20045;-76
2023/09/23 03:07:03;;;;;;;0.40;0.40;;;;;;;14.35;76.64;100880.59;5069207;28;20063;-79
2023/09/23 03:09:32;;;;;;;0.10;0.10;;;;;;;14.21;77.05;100881.94;5066848;28;20286;-77
2023/09/23 03:12:00;;;;;;;0.10;0.10;;;;;;;14.23;76.78;100881.88;5069381;28;20035;-78
2023/09/23 03:14:36;;;;;;;0.10;0.10;;;;;;;14.26;76.48;100887.13;5078407;28;20032;-78
2023/09/23 03:17:03;;;;;;;0.10;0.10;;;;;;;14.23;76.56;100887.22;5072226;28;20092;-78
2023/09/23 03:19:32;;;;;;;0.20;0.20;;;;;;;14.21;76.61;100886.41;5068475;28;20397;-77
2023/09/23 03:21:58;;;;;;;0.10;0.10;;;;;;;14.22;76.56;100886.34;5069232;28;20040;-78
2023/09/23 03:24:25;;;;;;;0.10;0.10;;;;;;;14.16;76.48;100897.22;5073928;28;20025;-78
2023/09/23 03:26:53;;;;;;;0.10;0.10;;;;;;;14.13;77.02;100892.00;5073091;28;20078;-76
2023/09/23 03:29:22;;;;;;;0.10;0.10;;;;;;;14.14;77.18;100899.06;5063540;28;20046;-77
2023/09/23 03:31:48;;;;;;;0.10;0.10;;;;;;;14.16;77.13;100904.34;5071498;28;20116;-78
2023/09/23 03:34:16;;;;;;;0.17;0.17;;;;;;;14.19;76.84;100909.56;5074907;28;20036;-78
2023/09/23 03:36:44;;;;;;;0.10;0.10;;;;;;;14.19;77.02;100918.44;5070666;28;20032;-77
2023/09/23 03:39:10;;;;;;;0.20;0.20;;;;;;;14.16;77.32;100917.69;5074291;28;20044;-79
2023/09/23 03:41:37;;;;;;;0.20;0.20;;;;;;;14.22;77.83;100907.66;5077910;28;20075;-78
2023/09/23 03:44:05;;;;;;;0.10;0.10;;;;;;;14.35;77.40;100920.56;5076248;28;20044;-77
2023/09/23 03:46:31;;;;;;;0.10;0.10;;;;;;;14.37;77.29;100924.94;5064959;28;20033;-78
2023/09/23 03:48:57;;;;;;;0.10;0.10;;;;;;;14.42;77.28;100924.78;5070789;28;20040;-76
2023/09/23 03:51:24;;;;;;;0.20;0.20;;;;;;;14.47;77.64;100927.28;5075246;28;20025;-76
2023/09/23 03:53:51;;;;;;;0.20;0.20;;;;;;;14.51;77.56;100935.09;5072696;28;20071;-76
2023/09/23 03:56:19;;;;;;;3.58;0.93;;;;;;;14.55;77.28;100923.44;5077340;28;20077;-79
2023/09/23 03:58:45;;;;;;;0.20;0.20;;;;;;;14.55;77.68;100926.09;5079240;28;20029;-79
2023/09/23 04:01:13;;;;;;;0.10;0.10;;;;;;;14.63;77.54;100925.81;5080730;28;20032;-79
2023/09/23 04:03:40;;;;;;;0.63;0.63;;;;;;;14.63;77.44;100923.16;5075844;28;20036;-79
2023/09/23 04:06:06;;;;;;;0.25;0.25;;;;;;;14.68;77.32;100920.38;5079004;28;20490;-78
2023/09/23 04:08:33;;;;;;;0.45;0.45;;;;;;;14.71;77.61;100922.91;5078402;28;20029;-78
2023/09/23 04:11:05;;;;;;;0.10;0.10;;;;;;;14.75;77.38;100929.84;5077352;28;20031;-79
2023/09/23 04:13:31;;;;;;;0.15;0.15;;;;;;;14.74;77.32;100936.13;5076294;28;20043;-78
2023/09/23 04:16:01;;;;;;;0.13;0.13;;;;;;;14.65;77.66;100931.13;5075828;28;20033;-79
2023/09/23 04:18:28;;;;;;;0.22;0.22;;;;;;;14.67;77.60;100940.81;5074816;28;20112;-79
2023/09/23 04:20:54;;;;;;;0.10;0.10;;;;;;;14.71;77.29;100938.91;5071079;28;20064;-77
2023/09/23 04:23:21;;;;;;;0.20;0.20;;;;;;;14.64;77.41;100956.91;5077652;28;20036;-78
2023/09/23 04:25:49;;;;;;;0.10;0.10;;;;;;;14.55;77.62;100952.75;5079108;28;20548;-78
2023/09/23 04:28:17;;;;;;;0.65;0.65;;;;;;;14.60;77.14;100947.25;5082780;28;20036;-79
2023/09/23 04:30:43;;;;;;;0.00;0.00;;;;;;;14.62;76.82;100957.88;5075882;28;20024;-79
2023/09/23 04:33:12;;;;;;;0.10;0.10;;;;;;;14.56;77.22;100958.94;5067512;28;20036;-78
2023/09/23 04:35:38;;;;;;;0.10;0.10;;;;;;;14.53;76.89;100967.94;5082002;28;20017;-79
2023/09/23 04:38:05;;;;;;;0.40;0.40;;;;;;;14.54;76.72;100964.34;5068200;28;20025;-76
2023/09/23 04:40:31;;;;;;;0.10;0.10;;;;;;;14.51;76.73;100972.44;5079190;28;20044;-78
2023/09/23 04:42:57;;;;;;;0.10;0.10;;;;;;;14.47;76.61;100967.28;5077722;28;20110;-78
2023/09/23 04:45:24;;;;;;;0.13;0.13;;;;;;;14.40;76.92;100982.59;5086145;28;20494;-79
2023/09/23 04:47:51;;;;;;;0.10;0.10;;;;;;;14.40;76.56;100975.50;5086171;28;20029;-78
2023/09/23 04:50:18;;;;;;;0.10;0.10;;;;;;;14.40;76.63;100980.81;5078987;28;20032;-79
2023/09/23 04:52:46;;;;;;;0.10;0.10;;;;;;;14.33;76.66;100983.72;5076940;28;20061;-79
2023/09/23 04:55:12;;;;;;;0.10;0.10;;;;;;;14.32;76.86;100987.34;5074761;28;20028;-78
2023/09/23 04:57:38;;;;;;;0.40;0.40;;;;;;;14.29;76.90;100992.75;5080443;28;20035;-78
2023/09/23 05:00:09;;;;;;;0.17;0.17;;;;;;;14.32;76.73;100998.00;5085494;28;20309;-78
2023/09/23 05:02:39;;;;;;;0.13;0.13;;;;;;;14.29;76.67;100998.06;5077986;28;20029;-78
2023/09/23 05:05:05;;;;;;;0.10;0.10;;;;;;;14.29;76.51;100996.28;5086287;28;20044;-78
2023/09/23 05:07:31;;;;;;;0.10;0.10;;;;;;;14.24;76.75;101001.78;5073991;28;20028;-78
2023/09/23 05:09:57;;;;;;;0.10;0.10;;;;;;;14.26;76.38;101006.19;5083591;28;20033;-78
2023/09/23 05:12:24;;;;;;;0.15;0.15;;;;;;;14.19;76.65;101008.16;5081080;28;20032;-78
2023/09/23 05:14:51;;;;;;;0.10;0.10;;;;;;;14.18;76.61;101011.75;5071856;28;20029;-78
2023/09/23 05:17:17;;;;;;;0.17;0.17;;;;;;;14.06;76.76;101018.34;5082617;28;20035;-77
2023/09/23 05:19:46;;;;;;;0.10;0.10;;;;;;;14.03;76.88;101015.78;5075384;28;20455;-78
2023/09/23 05:22:12;;;;;;;0.10;0.10;;;;;;;14.00;77.17;101024.72;5071913;28;20043;-77
2023/09/23 05:24:39;;;;;;;0.20;0.20;;;;;;;13.97;77.26;101023.94;5074378;28;20086;-78
2023/09/23 05:27:05;;;;;;;0.05;0.05;;;;;;;14.01;76.88;101037.13;5080829;28;20112;-78
2023/09/23 05:29:32;;;;;;;0.10;0.10;;;;;;;13.99;77.06;101040.78;5083609;28;20016;-78
2023/09/23 05:31:58;;;;;;;0.10;0.10;;;;;;;13.98;77.20;101041.69;5083522;28;20024;-78
2023/09/23 05:34:24;;;;;;;0.10;0.10;;;;;;;13.98;77.44;101047.91;5076182;28;20024;-79
2023/09/23 05:36:51;;;;;;;0.15;0.15;;;;;;;13.94;77.89;101056.03;5084462;28;20033;-78
2023/09/23 05:39:19;;;;;;;0.10;0.10;;;;;;;13.98;78.01;101052.34;5082230;28;20124;-78
2023/09/23 05:41:47;;;;;;;0.57;0.57;;;;;;;14.05;77.88;101059.22;5082330;28;20029;-77
2023/09/23 05:44:15;;;;;;;0.10;0.10;;;;;;;14.03;77.98;101069.06;5071901;28;20029;-79
2023/09/23 05:46:42;;;;;;;0.10;0.10;;;;;;;14.05;78.32;101064.56;5084780;28;20020;-78
2023/09/23 05:49:08;;;;;;;0.10;0.10;;;;;;;14.01;78.14;101069.09;5088783;28;20084;-80
2023/09/23 05:51:35;;;;;;;0.73;0.73;;;;;;;14.13;77.75;101073.19;5089092;28;20044;-78
2023/09/23 05:54:02;;;;;;;1.20;1.20;;;;;;;14.14;77.67;101074.91;5085873;28;20118;-80
2023/09/23 05:56:28;;;;;;;0.10;0.10;;;;;;;14.09;77.95;101076.84;5086835;28;20028;-78
2023/09/23 05:58:54;;;;;;;0.20;0.20;;;;;;;14.11;77.76;101079.50;5087208;28;20050;-78
2023/09/23 06:01:20;;;;;;;0.10;0.10;;;;;;;14.11;77.81;101080.34;5086878;28;20025;-79
2023/09/23 06:03:48;;;;;;;0.10;0.10;;;;;;;14.15;77.85;101082.00;5086152;28;20036;-79
2023/09/23 06:06:14;;;;;;;0.10;0.10;;;;;;;14.08;78.17;101091.97;5082735;28;20029;-79
2023/09/23 06:08:40;;;;;;;0.10;0.10;;;;;;;14.16;77.80;101081.09;5084330;28;20032;-79
2023/09/23 06:11:09;;;;;;;0.43;0.43;;;;;;;14.05;78.57;101088.53;5084402;28;20103;-78
2023/09/23 06:13:35;;;;;;;0.08;0.08;;;;;;;14.18;78.26;101097.00;5080526;28;20104;-77
2023/09/23 06:16:04;;;;;;;0.10;0.10;;;;;;;14.18;78.68;101103.25;5081156;28;20123;-79
2023/09/23 06:18:30;;;;;;;0.10;0.10;;;;;;;14.28;78.62;101100.28;5076106;28;20025;-77
2023/09/23 06:21:01;;;;;;;0.10;0.10;;;;;;;14.45;78.46;101105.06;5069993;28;20033;-77
2023/09/23 06:23:27;;;;;;;0.10;0.10;;;;;;;14.46;78.36;101113.03;5066656;28;20033;-79
2023/09/23 06:25:55;;;;;;;0.10;0.10;;;;;;;14.52;78.24;101117.31;5080895;28;20028;-79
2023/09/23 06:28:22;;;;;;;0.75;0.75;;;;;;;14.48;78.76;101128.97;5072516;28;20033;-79
2023/09/23 06:30:48;;;;;;;0.15;0.15;;;;;;;14.61;78.34;101137.47;5080952;28;20021;-78
2023/09/23 06:33:14;;;;;;;0.10;0.10;;;;;;;14.62;78.35;101137.41;5075134;28;20067;-78
2023/09/23 06:35:41;;;;;;;0.10;0.10;;;;;;;14.67;78.03;101139.97;5083968;28;20440;-78
2023/09/23 06:38:07;;;;;;;0.10;0.10;;;;;;;14.74;78.23;101145.97;5078697;28;20037;-78
2023/09/23 06:40:33;;;;;;;0.10;0.10;;;;;;;14.67;78.63;101147.97;5084596;28;20439;-79
2023/09/23 06:42:59;;;;;;;0.35;0.35;;;;;;;14.80;78.43;101151.94;5083109;28;20043;-78
2023/09/23 06:45:25;;;;;;;0.10;0.10;;;;;;;14.78;78.60;101150.25;5081355;28;20056;-78
2023/09/23 06:47:51;;;;;;;0.10;0.10;;;;;;;14.88;78.34;101152.59;5077379;28;20093;-78
2023/09/23 06:50:17;;;;;;;0.52;0.32;;;;;;;14.95;78.16;101152.38;5080313;28;20394;-78
2023/09/23 06:52:44;;;;;;;1.30;1.20;;;;;;;14.97;78.24;101156.75;5083681;28;20036;-78
2023/09/23 06:55:10;;;;;;;0.10;0.10;;;;;;;15.03;78.37;101158.34;5068491;28;20162;-77
2023/09/23 06:57:36;;;;;;;0.10;0.10;;;;;;;15.12;78.12;101151.81;5064428;28;20081;-77
2023/09/23 07:00:06;;;;;;;0.10;0.10;;;;;;;15.15;78.19;101163.28;5069494;28;20029;-77
2023/09/23 07:02:32;;;;;;;2.90;0.82;;;;;;;15.28;77.88;101165.53;5066882;28;20647;-77
2023/09/23 07:04:59;;;;;;;0.20;0.20;;;;;;;15.31;78.13;101165.41;5069108;28;20078;-77
2023/09/23 07:07:25;;;;;;;0.10;0.10;;;;;;;15.34;78.00;101171.50;5068823;28;20079;-77
2023/09/23 07:09:51;;;;;;;0.10;0.10;;;;;;;15.42;77.66;101165.88;5063859;28;20551;-77
2023/09/23 07:12:17;;;;;;;0.15;0.15;;;;;;;15.46;77.96;101175.53;5069136;28;20028;-77
2023/09/23 07:14:43;;;;;;;0.45;0.45;;;;;;;15.47;77.55;101177.28;5072388;28;20059;-77
2023/09/23 07:17:09;;;;;;;0.10;0.10;;;;;;;15.49;77.50;101180.78;5073582;28;20370;-78
2023/09/23 07:19:35;;;;;;;0.20;0.20;;;;;;;15.53;77.31;101190.41;5078003;28;20029;-77
2023/09/23 07:22:03;;;;;;;0.10;0.10;;;;;;;15.47;77.60;101187.97;5078122;28;20056;-76
2023/09/23 07:24:33;;;;;;;0.10;0.10;;;;;;;15.53;77.52;101193.09;5078008;28;20021;-77
2023/09/23 07:26:59;;;;;;;0.10;0.10;;;;;;;15.48;77.33;101195.06;5078609;28;20032;-78
2023/09/23 07:29:26;;;;;;;0.10;0.10;;;;;;;15.51;77.43;101200.31;5080061;28;20036;-78
2023/09/23 07:31:53;;;;;;;0.25;0.25;;;;;;;15.53;77.18;101210.91;5070313;28;20032;-78
2023/09/23 07:34:20;;;;;;;0.28;0.28;;;;;;;15.48;77.85;101213.75;5076595;28;20028;-78
2023/09/23 07:36:46;;;;;;;0.10;0.10;;;;;;;15.59;77.14;101207.16;5074337;28;20039;-77
2023/09/23 07:39:12;;;;;;;0.15;0.15;;;;;;;15.59;77.75;101223.16;5073198;28;20044;-77
2023/09/23 07:41:39;;;;;;;0.10;0.10;;;;;;;15.59;77.67;101223.16;5065497;28;20029;-77
2023/09/23 07:44:05;;;;;;;0.10;0.10;;;;;;;15.56;77.58;101225.97;5073143;28;20040;-78
2023/09/23 07:46:32;;;;;;;0.75;0.75;;;;;;;15.71;77.43;101230.75;5067533;28;20032;-77
2023/09/23 07:48:58;;;;;;;0.17;0.17;;;;;;;15.74;77.43;101238.69;5073769;28;20404;-77
2023/09/23 07:51:24;;;;;;;0.10;0.10;;;;;;;15.80;77.22;101238.47;5073079;28;20068;-78
2023/09/23 07:53:52;;;;;;;0.10;0.10;;;;;;;15.72;77.98;101245.88;5064992;28;20037;-77
2023/09/23 07:56:18;;;;;;;0.10;0.10;;;;;;;15.80;77.73;101249.16;5069560;28;20524;-76
2023/09/23 07:58:44;;;;;;;0.05;0.05;;;;;;;15.86;77.64;101253.41;5077634;28;20024;-76
2023/09/23 08:01:10;;;;;;;0.10;0.10;;;;;;;15.88;77.46;101256.91;5070225;28;20021;-77
2023/09/23 08:03:36;;;;;;;0.10;0.10;;;;;;;15.89;77.57;101264.00;5070997;28;20062;-77
2023/09/23 08:06:03;;;;;;;0.10;0.10;;;;;;;15.87;77.73;101265.84;5056383;28;20029;-77
2023/09/23 08:08:29;;;;;;;0.10;0.10;;;;;;;15.82;77.48;101266.00;5072227;28;20489;-77
2023/09/23 08:10:58;;;;;;;0.10;0.10;;;;;;;15.87;77.65;101270.34;5072127;28;20435;-77
2023/09/23 08:13:26;;;;;;;0.10;0.10;;;;;;;15.92;77.41;101269.22;5063815;28;20032;-77
2023/09/23 08:15:57;;;;;;;0.30;0.30;;;;;;;15.96;77.39;101278.00;5064341;28;20398;-77
2023/09/23 08:18:24;;;;;;;0.22;0.22;;;;;;;15.90;77.35;101275.56;5060525;28;20017;-77
2023/09/23 08:21:06;;;;;;;0.32;0.32;;;;;;;16.04;77.12;101278.63;5062931;28;20143;-76
2023/09/23 08:23:32;;;;;;;0.10;0.10;;;;;;;15.91;77.43;101294.19;5056403;28;20060;-77
2023/09/23 08:25:58;;;;;;;0.10;0.10;;;;;;;15.99;77.28;101296.63;5064705;28;20040;-77
2023/09/23 08:28:25;;;;;;;1.42;1.33;;;;;;;16.04;77.55;101302.69;5068468;28;20043;-77
2023/09/23 08:30:52;;;;;;;0.10;0.10;;;;;;;16.10;77.02;101310.47;5073656;28;20024;-79
2023/09/23 08:33:18;;;;;;;0.10;0.10;;;;;;;16.16;76.82;101312.94;5070086;28;20032;-76
2023/09/23 08:35:48;;;;;;;0.10;0.10;;;;;;;16.20;77.37;101319.06;5061622;28;20402;-77
2023/09/23 08:38:14;;;;;;;0.75;0.52;;;;;;;16.28;77.03;101316.09;5070577;28;20024;-78
2023/09/23 08:40:43;;;;;;;0.55;0.55;;;;;;;16.36;77.14;101319.34;5053901;28;20040;-77
2023/09/23 08:43:10;;;;;;;0.28;0.28;;;;;;;16.53;77.27;101328.56;5071025;28;20095;-77
2023/09/23 08:45:43;;;;;;;0.10;0.10;;;;;;;16.67;77.38;101326.22;5060544;28;20033;-77
2023/09/23 08:48:11;;;;;;;0.25;0.25;;;;;;;16.81;77.29;101329.25;5059165;28;20025;-77
2023/09/23 08:50:42;;;;;;;0.00;0.00;;;;;;;17.03;77.62;101332.94;5057735;28;20032;-78
2023/09/23 08:53:08;;;;;;;0.10;0.10;;;;;;;17.10;77.18;101338.00;5069281;28;20087;-77
2023/09/23 08:55:35;;;;;;;0.10;0.10;;;;;;;17.29;77.14;101337.25;5065853;28;20029;-78
2023/09/23 08:58:04;;;;;;;0.20;0.20;;;;;;;17.54;77.10;101336.25;5079007;28;20389;-78
2023/09/23 09:00:31;;;;;;;0.45;0.22;;;;;;;17.59;76.55;101344.97;5072960;28;20031;-77
2023/09/23 09:02:57;;;;;;;0.10;0.10;;;;;;;17.61;75.15;101345.78;5067970;28;20052;-78
2023/09/23 09:05:23;;;;;;;0.10;0.10;;;;;;;17.71;74.93;101341.78;5069007;28;20028;-77
2023/09/23 09:07:50;;;;;;;0.10;0.10;;;;;;;17.79;74.45;101347.69;5076490;28;20454;-77
2023/09/23 09:10:17;;;;;;;0.30;0.30;;;;;;;17.78;74.47;101348.63;5059303;28;20102;-77
2023/09/23 09:12:43;;;;;;;0.20;0.20;;;;;;;17.86;73.92;101352.81;5068230;28;20032;-77
2023/09/23 09:15:10;;;;;;;1.90;1.13;;;;;;;17.94;74.51;101353.34;5074690;28;20043;-77
2023/09/23 09:17:36;;;;;;;0.10;0.10;;;;;;;17.83;70.99;101355.59;5072425;28;20025;-77
2023/09/23 09:20:08;;;;;;;0.10;0.10;;;;;;;17.66;68.85;101358.97;5070761;28;20451;-77
2023/09/23 09:22:36;;;;;;;15.90;1.02;;;;;;;17.45;67.16;101357.13;5065704;28;20043;-77
2023/09/23 09:25:04;;;;;;;0.10;0.10;;;;;;;17.58;67.93;101370.00;5071424;28;20035;-76
2023/09/23 09:27:30;;;;;;;0.10;0.10;;;;;;;17.57;68.16;101378.97;5071787;28;20020;-77
2023/09/23 09:29:56;;;;;;;0.10;0.10;;;;;;;17.58;66.80;101381.63;5072708;28;20504;-77
2023/09/23 09:32:29;;;;;;;0.10;0.10;;;;;;;17.56;66.20;101387.97;5062447;28;20037;-77
2023/09/23 09:35:01;;;;;;;0.47;0.47;;;;;;;17.53;66.71;101385.41;5068146;28;20036;-77
2023/09/23 09:37:28;;;;;;;0.20;0.20;;;;;;;17.48;67.56;101393.63;5056950;28;20444;-78
2023/09/23 09:40:00;;;;;;;0.05;0.05;;;;;;;17.43;67.54;101398.31;5055764;28;20025;-77
2023/09/23 09:42:30;;;;;;;0.13;0.13;;;;;;;17.40;68.11;101398.44;5052134;28;20528;-77
2023/09/23 09:44:57;;;;;;;0.10;0.10;;;;;;;17.25;69.16;101414.16;5052258;28;20039;-77
2023/09/23 09:47:23;;;;;;;0.70;0.70;;;;;;;17.16;69.89;101419.00;5051863;28;20061;-77
2023/09/23 09:49:52;;;;;;;0.10;0.10;;;;;;;16.95;70.30;101424.25;5058015;28;20059;-77
2023/09/23 09:52:22;;;;;;;0.15;0.15;;;;;;;16.87;70.28;101418.28;5052007;28;20060;-77
2023/09/23 09:54:52;;;;;;;0.10;0.10;;;;;;;16.91;70.82;101426.16;5053705;28;20498;-77
2023/09/23 09:57:20;;;;;;;0.10;0.10;;;;;;;16.66;69.81;101434.19;5052002;28;20059;-77
2023/09/23 09:59:47;;;;;;;0.20;0.20;;;;;;;16.84;69.77;101434.47;5052280;28;20029;-77
2023/09/23 10:02:14;;;;;;;0.00;0.00;;;;;;;16.96;70.45;101428.69;5054781;28;20742;-77
2023/09/23 10:04:46;;;;;;;0.10;0.10;;;;;;;16.97;70.15;101443.78;5068800;28;20794;-77
2023/09/23 10:07:12;;;;;;;0.20;0.20;;;;;;;16.79;70.25;101443.50;5076944;28;20033;-78
2023/09/23 10:09:53;;;;;;;0.10;0.10;;;;;;;16.89;70.24;101437.84;5077147;28;20448;-78
2023/09/23 10:12:31;;;;;;;0.10;0.10;;;;;;;16.91;70.67;101433.28;5078825;28;20017;-78
2023/09/23 10:14:58;;;;;;;0.10;0.10;;;;;;;16.81;71.03;101433.63;5073204;28;20459;-78
2023/09/23 10:17:30;;;;;;;0.10;0.10;;;;;;;16.90;71.05;101434.22;5072881;28;20031;-78
2023/09/23 10:19:57;;;;;;;0.20;0.20;;;;;;;16.98;70.92;101434.84;5073991;28;20040;-78
2023/09/23 10:22:24;;;;;;;0.10;0.10;;;;;;;16.89;70.86;101438.69;5070524;28;20067;-78
2023/09/23 10:25:10;;;;;;;0.15;0.15;;;;;;;16.99;71.08;101433.91;5078886;28;20526;-77
2023/09/23 10:27:39;;;;;;;0.10;0.10;;;;;;;16.91;71.28;101436.88;5080284;28;20090;-77
2023/09/23 10:30:06;;;;;;;0.10;0.10;;;;;;;16.94;71.20;101438.56;5058870;28;20069;-77
2023/09/23 10:32:32;;;;;;;0.20;0.20;;;;;;;17.00;71.43;101435.66;5063316;28;20029;-78
2023/09/23 10:34:59;;;;;;;0.10;0.10;;;;;;;17.09;71.42;101446.00;5072529;28;20128;-78
2023/09/23 10:37:31;;;;;;;0.10;0.10;;;;;;;17.28;71.25;101448.88;5071709;28;20028;-78
2023/09/23 10:42:41;;;;;;;0.30;0.30;;;;;;;17.38;70.94;101462.75;5095876;27;20898;-77
2023/09/23 10:45:09;;;;;;;0.10;0.10;;;;;;;17.44;71.01;101472.38;5089528;28;20032;-77
2023/09/23 10:47:36;;;;;;;0.10;0.10;;;;;;;17.40;70.87;101471.63;5092885;28;20493;-77
2023/09/23 10:50:07;;;;;;;0.10;0.10;;;;;;;17.39;71.01;101472.53;5091667;28;20056;-78
2023/09/23 10:52:34;;;;;;;0.05;0.05;;;;;;;17.33;71.02;101478.13;5091683;28;20058;-78
2023/09/23 10:55:00;;;;;;;0.10;0.10;;;;;;;17.33;70.89;101479.97;5095450;28;20027;-77
2023/09/23 10:57:28;;;;;;;0.08;0.08;;;;;;;17.26;69.88;101490.03;5101815;28;20035;-78
2023/09/23 10:59:55;;;;;;;0.00;0.00;;;;;;;17.25;69.18;101480.25;5112733;28;20052;-77
2023/09/23 11:02:22;;;;;;;0.10;0.10;;;;;;;17.16;67.67;101494.88;5100644;28;20019;-77
2023/09/23 11:04:49;;;;;;;0.10;0.10;;;;;;;17.11;67.27;101507.56;5103896;28;20089;-78
2023/09/23 11:07:16;;;;;;;0.10;0.10;;;;;;;17.28;67.72;101507.78;5099619;28;20043;-77
2023/09/23 11:09:45;;;;;;;0.10;0.10;;;;;;;17.30;67.77;101516.63;5111461;27;20096;-77
2023/09/23 11:12:13;;;;;;;0.10;0.10;;;;;;;17.34;67.85;101512.03;5091308;28;20032;-78
2023/09/23 11:14:44;;;;;;;0.10;0.10;;;;;;;17.48;67.51;101513.31;5109064;28;20062;-78
2023/09/23 11:17:29;;;;;;;0.10;0.10;;;;;;;17.69;68.31;101514.28;5107952;28;20027;-79
2023/09/23 11:22:33;;;;;;;0.10;0.10;;;;;;;17.73;66.99;101527.53;5113480;27;20759;-78
2023/09/23 11:25:00;;;;;;;0.10;0.10;;;;;;;17.69;65.94;101533.91;5089228;28;20025;-78
2023/09/23 11:27:27;;;;;;;0.10;0.10;;;;;;;17.76;65.78;101531.88;5083613;28;20063;-78
2023/09/23 11:29:55;;;;;;;0.10;0.10;;;;;;;17.89;67.67;101540.31;5097217;28;20413;-79
2023/09/23 11:32:23;;;;;;;0.10;0.10;;;;;;;17.83;66.00;101548.59;5090478;28;20027;-78